Flight Track Log - Related Links

Times and Time Zones

All times are in EDT time to prevent confusion due to time zone crossing. See the UAL33 flight status page for this flight to view local times or setup timezone preferences in your user account.

Time Position Orientation Groundspeed Altitude Reporting Facility
EDT Latitude Longitude Course Direction KTS MPH feet Rate Location/Type
Fri 04:33:56 AM 35.7900 140.3560 330° Northwest 171 197 1,600  Level FlightAware ADS-B
Fri 04:34:16 AM 35.8050 140.3460 332° Northwest 180 207 2,200 1,950 Climbing FlightAware ADS-B
Fri 04:34:36 AM 35.8200 140.3360 332° Northwest 184 212 2,900 1,714 Climbing FlightAware ADS-B
Fri 04:34:58 AM 35.8360 140.3240 329° Northwest 202 232 3,400 1,235 Climbing FlightAware ADS-B
Fri 04:35:10 AM 35.8470 140.3160 329° Northwest 221 254 3,600 1,135 Climbing FlightAware ADS-B
Fri 04:35:35 AM 35.8700 140.2990 329° Northwest 252 290 4,100 1,737 Climbing FlightAware ADS-B
Fri 04:35:48 AM 35.8850 140.2910 337° Northwest 258 297 4,700 2,526 Climbing FlightAware ADS-B
Fri 04:35:54 AM 35.8920 140.2900 353° North 259 298 4,900 2,143 Climbing FlightAware ADS-B
Fri 04:36:16 AM 35.9120 140.2970 16° North 256 295 5,700 2,308 Climbing FlightAware ADS-B
Fri 04:36:20 AM 35.9190 140.3030 35° Northeast 266 306 5,900 2,625 Climbing FlightAware ADS-B
Fri 04:36:32 AM 35.9270 140.3160 53° Northeast 273 314 6,400 2,333 Climbing FlightAware ADS-B
Fri 04:36:38 AM 35.9300 140.3270 71° East 276 318 6,600 2,625 Climbing FlightAware ADS-B
Fri 04:36:48 AM 35.9320 140.3430 81° East 279 321 7,100 2,700 Climbing FlightAware ADS-B
Fri 04:36:58 AM 35.9300 140.3590 99° East 279 321 7,500 2,455 Climbing FlightAware ADS-B
Fri 04:37:10 AM 35.9250 140.3760 110° East 281 323 8,000 2,286 Climbing FlightAware ADS-B
Fri 04:37:19 AM 35.9200 140.3880 117° Southeast 285 328 8,300 2,160 Climbing FlightAware ADS-B
Fri 04:37:35 AM 35.9080 140.4100 124° Southeast 290 334 8,900 2,471 Climbing FlightAware ADS-B
Fri 04:37:53 AM 35.8920 140.4370 126° Southeast 300 345 9,700 1,698 Climbing FlightAware ADS-B
Fri 04:38:28 AM 35.8600 140.4900 127° Southeast 338 389 10,400 1,268 Climbing FlightAware ADS-B
Fri 04:39:04 AM 35.8240 140.5500 126° Southeast 375 432 11,200 1,833 Climbing FlightAware ADS-B
Fri 04:39:40 AM 35.7860 140.6120 127° Southeast 390 449 12,600 2,348 Climbing FlightAware ADS-B
Fri 04:40:13 AM 35.7510 140.6710 126° Southeast 402 463 13,900 2,029 Climbing FlightAware ADS-B
Fri 04:40:48 AM 35.7110 140.7380 126° Southeast 412 474 14,900 930 Climbing FlightAware ADS-B
Fri 04:41:24 AM 35.6690 140.8060 127° Southeast 416 479 15,000 88 Climbing FlightAware ADS-B
Fri 04:41:56 AM 35.6340 140.8650 126° Southeast 421 484 15,000  Level FlightAware ADS-B
Fri 04:42:32 AM 35.5910 140.9360 127° Southeast 424 488 15,000 986 Level FlightAware ADS-B
Fri 04:43:09 AM 35.5510 141.0030 126° Southeast 428 493 16,200 2,333 Climbing FlightAware ADS-B
Fri 04:43:44 AM 35.5080 141.0740 127° Southeast 433 498 17,800 2,338 Climbing FlightAware ADS-B
Fri 04:44:26 AM 35.4700 141.1700 116° Southeast 450 518 19,200 1,923 Climbing FlightAware ADS-B
Fri 04:45:02 AM 35.4430 141.2570 111° Southeast 458 527 20,300 1,971 Climbing FlightAware ADS-B
Fri 04:45:36 AM 35.4200 141.3440 108° East 472 543 21,500 1,778 Climbing FlightAware ADS-B
Fri 04:45:56 AM 35.4160 141.3950 95° East 488 562 21,900 1,560 Climbing FlightAware ADS-B
Fri 04:46:26 AM 35.4270 141.4810 81° East 499 574 22,800 1,569 Climbing FlightAware ADS-B
Fri 04:47:01 AM 35.4510 141.5770 73° East 510 587 23,600 1,477 Climbing FlightAware ADS-B
Fri 04:47:31 AM 35.4720 141.6590 73° East 520 598 24,400 1,545 Climbing FlightAware ADS-B
Fri 04:48:07 AM 35.5050 141.7550 67° East 529 609 25,300 1,440 Climbing FlightAware ADS-B
Fri 04:48:46 AM 35.5520 141.8590 61° Northeast 534 615 26,200 1,478 Climbing FlightAware ADS-B
Fri 04:49:16 AM 35.5900 141.9420 61° Northeast 540 621 27,000 1,569 Climbing FlightAware ADS-B
Fri 04:49:51 AM 35.6330 142.0350 60° Northeast 545 627 27,900 1,440 Climbing FlightAware ADS-B
Fri 04:50:31 AM 35.6830 142.1460 61° Northeast 552 635 28,800 1,360 Climbing FlightAware ADS-B
Fri 04:51:06 AM 35.7260 142.2410 61° Northeast 559 643 29,600 1,250 Climbing FlightAware ADS-B
Fri 04:51:43 AM 35.7690 142.3370 61° Northeast 563 648 30,300 1,059 Climbing FlightAware ADS-B
Fri 04:52:31 AM 35.8330 142.4780 61° Northeast 572 658 31,100 1,154 Climbing FlightAware ADS-B
Fri 04:53:01 AM 35.8730 142.5660 61° Northeast 573 659 31,800 1,569 Climbing FlightAware ADS-B
Fri 04:53:36 AM 35.9170 142.6660 61° Northeast 568 654 32,800 1,360 Climbing FlightAware ADS-B
Fri 04:54:16 AM 35.9660 142.7750 61° Northeast 572 658 33,500 1,200 Climbing FlightAware ADS-B
Fri 04:54:46 AM 36.0070 142.8680 61° Northeast 570 656 34,200 1,364 Climbing FlightAware ADS-B
Fri 04:55:22 AM 36.0510 142.9680 61° Northeast 567 652 35,000 1,286 Climbing FlightAware ADS-B
Fri 04:55:56 AM 36.0950 143.0660 61° Northeast 562 647 35,700 1,135 Climbing FlightAware ADS-B
Fri 04:56:36 AM 36.1450 143.1800 61° Northeast 561 646 36,400 960 Climbing FlightAware ADS-B
Fri 04:57:11 AM 36.1860 143.2740 62° Northeast 560 644 36,900 960 Climbing FlightAware ADS-B
Fri 04:57:51 AM 36.2380 143.3930 62° Northeast 557 641 37,600 628 Climbing FlightAware ADS-B
Fri 04:58:37 AM 36.2880 143.5080 62° Northeast 558 642 37,800 146 Climbing FlightAware ADS-B
Fri 04:59:13 AM 36.3250 143.5940 62° Northeast 558 642 37,800  Level FlightAware ADS-B
Fri 04:59:49 AM 36.3620 143.6810 62° Northeast 558 642 37,800 1,059 Level FlightAware ADS-B
Fri 05:00:21 AM 36.4180 143.8060 61° Northeast 973 1120 39,000 1,000 Climbing FlightAware ADS-B
Fri 05:01:01 AM 36.4700 143.9270 62° Northeast 556 640 39,000  Level FlightAware ADS-B
Fri 05:01:36 AM 36.5100 144.0210 62° Northeast 558 642 39,000  Level FlightAware ADS-B
Fri 05:02:07 AM 36.5470 144.1080 62° Northeast 557 641 39,000  Level FlightAware ADS-B
Fri 05:02:41 AM 36.5850 144.1970 62° Northeast 556 640 39,000  Level FlightAware ADS-B
Fri 05:03:18 AM 36.6230 144.2860 62° Northeast 556 640 39,000  Level FlightAware ADS-B
Fri 05:03:55 AM 36.6610 144.3750 62° Northeast 556 640 39,000  Level FlightAware ADS-B
Fri 05:04:32 AM 36.6990 144.4640 62° Northeast 556 640 39,000  Level FlightAware ADS-B
Fri 05:05:08 AM 36.7360 144.5510 62° Northeast 556 640 39,000  Level FlightAware ADS-B
Fri 05:05:45 AM 36.7740 144.6400 62° Northeast 556 640 39,000  Level FlightAware ADS-B
Fri 05:06:21 AM 36.8110 144.7270 62° Northeast 556 640 39,000  Level FlightAware ADS-B
Fri 05:06:57 AM 36.8480 144.8130 62° Northeast 556 640 39,000  Level FlightAware ADS-B
Fri 05:07:36 AM 36.9410 145.0430 63° Northeast 485 558 39,000  Level FlightAware ADS-B
Fri 05:10:00 AM 37.1266 145.4256 59° Northeast  Level Estimated
Fri 05:11:00 AM 37.2036 145.5856 59° Northeast  Level Estimated
Fri 05:12:00 AM 37.2804 145.7460 59° Northeast  Level Estimated
Fri 05:13:00 AM 37.3569 145.9066 59° Northeast  Level Estimated
Fri 05:14:00 AM 37.4333 146.0676 59° Northeast  Level Estimated
Fri 05:15:00 AM 37.5094 146.2289 59° Northeast  Level Estimated
Fri 05:16:00 AM 37.5853 146.3905 59° Northeast  Level Estimated
Fri 05:17:00 AM 37.6609 146.5525 59° Northeast  Level Estimated
Fri 05:18:00 AM 37.7364 146.7148 60° Northeast  Level Estimated
Fri 05:19:00 AM 37.8116 146.8774 60° Northeast  Level Estimated
Fri 05:20:00 AM 37.8866 147.0403 60° Northeast  Level Estimated
Fri 05:21:00 AM 37.9614 147.2036 60° Northeast  Level Estimated
Fri 05:22:00 AM 38.0359 147.3672 60° Northeast  Level Estimated
Fri 05:23:00 AM 38.1103 147.5312 60° Northeast  Level Estimated
Fri 05:24:00 AM 38.1844 147.6954 60° Northeast  Level Estimated
Fri 05:25:00 AM 38.2583 147.8600 60° Northeast  Level Estimated
Fri 05:26:00 AM 38.3319 148.0250 60° Northeast  Level Estimated
Fri 05:27:00 AM 38.4053 148.1903 60° Northeast  Level Estimated
Fri 05:28:00 AM 38.4785 148.3559 61° Northeast  Level Estimated
Fri 05:29:00 AM 38.5514 148.5219 61° Northeast  Level Estimated
Fri 05:30:00 AM 38.6241 148.6882 61° Northeast  Level Estimated
Fri 05:31:00 AM 38.6966 148.8548 61° Northeast  Level Estimated
Fri 05:32:00 AM 38.7688 149.0217 61° Northeast  Level Estimated
Fri 05:33:00 AM 38.8408 149.1891 61° Northeast  Level Estimated
Fri 05:34:00 AM 38.9126 149.3567 61° Northeast  Level Estimated
Fri 05:35:00 AM 38.9841 149.5247 61° Northeast  Level Estimated
Fri 05:36:00 AM 39.0554 149.6930 61° Northeast  Level Estimated
Fri 05:37:00 AM 39.1264 149.8617 61° Northeast  Level Estimated
Fri 05:38:00 AM 39.1972 150.0307 62° Northeast  Level Estimated
Fri 05:39:00 AM 39.2677 150.2000 62° Northeast  Level Estimated
Fri 05:40:00 AM 39.3380 150.3697 62° Northeast  Level Estimated
Fri 05:41:00 AM 39.4081 150.5397 62° Northeast  Level Estimated
Fri 05:42:00 AM 39.4779 150.7101 62° Northeast  Level Estimated
Fri 05:43:00 AM 39.5474 150.8808 62° Northeast  Level Estimated
Fri 05:44:00 AM 39.6167 151.0518 62° Northeast  Level Estimated
Fri 05:45:00 AM 39.6858 151.2232 62° Northeast  Level Estimated
Fri 05:46:00 AM 39.7546 151.3949 62° Northeast  Level Estimated
Fri 05:47:00 AM 39.8231 151.5670 63° Northeast  Level Estimated
Fri 05:48:00 AM 39.8914 151.7394 63° Northeast  Level Estimated
Fri 05:49:00 AM 39.9595 151.9122 63° Northeast  Level Estimated
Fri 05:50:00 AM 40.0272 152.0853 63° Northeast  Level Estimated
Fri 05:51:00 AM 40.0948 152.2587 63° Northeast  Level Estimated
Fri 05:52:00 AM 40.1620 152.4325 63° Northeast  Level Estimated
Fri 05:53:00 AM 40.2290 152.6067 63° Northeast  Level Estimated
Fri 05:54:00 AM 40.2958 152.7812 63° Northeast  Level Estimated
Fri 05:55:00 AM 40.3622 152.9560 63° Northeast  Level Estimated
Fri 05:56:00 AM 40.4285 153.1312 64° Northeast  Level Estimated
Fri 05:57:00 AM 40.4944 153.3067 64° Northeast  Level Estimated
Fri 05:58:00 AM 40.5601 153.4825 64° Northeast  Level Estimated
Fri 05:59:00 AM 40.6255 153.6587 64° Northeast  Level Estimated
Fri 06:00:00 AM 40.6907 153.8353 64° Northeast  Level Estimated
Fri 06:01:00 AM 40.7555 154.0122 64° Northeast  Level Estimated
Fri 06:02:00 AM 40.8201 154.1894 64° Northeast  Level Estimated
Fri 06:03:00 AM 40.8845 154.3670 64° Northeast  Level Estimated
Fri 06:04:00 AM 40.9485 154.5449 64° Northeast  Level Estimated
Fri 06:05:00 AM 41.0123 154.7232 65° Northeast  Level Estimated
Fri 06:06:00 AM 41.0758 154.9018 65° Northeast  Level Estimated
Fri 06:07:00 AM 41.1391 155.0808 65° Northeast  Level Estimated
Fri 06:08:00 AM 41.2020 155.2601 65° Northeast  Level Estimated
Fri 06:09:00 AM 41.2647 155.4397 65° Northeast  Level Estimated
Fri 06:10:00 AM 41.3271 155.6197 65° Northeast  Level Estimated
Fri 06:11:00 AM 41.3892 155.8001 65° Northeast  Level Estimated
Fri 06:12:00 AM 41.4511 155.9807 65° Northeast  Level Estimated
Fri 06:13:00 AM 41.5126 156.1618 66° East  Level Estimated
Fri 06:14:00 AM 41.5739 156.3432 66° East  Level Estimated
Fri 06:15:00 AM 41.6349 156.5249 66° East  Level Estimated
Fri 06:16:00 AM 41.6956 156.7069 66° East  Level Estimated
Fri 06:17:00 AM 41.7560 156.8893 66° East  Level Estimated
Fri 06:18:00 AM 41.8161 157.0721 66° East  Level Estimated
Fri 06:19:00 AM 41.8760 157.2552 66° East  Level Estimated
Fri 06:20:00 AM 41.9355 157.4386 66° East  Level Estimated
Fri 06:21:00 AM 41.9948 157.6224 66° East  Level Estimated
Fri 06:22:00 AM 42.0537 157.8065 67° East  Level Estimated
Fri 06:23:00 AM 42.1124 157.9909 67° East  Level Estimated
Fri 06:24:00 AM 42.1707 158.1757 67° East  Level Estimated
Fri 06:25:00 AM 42.2288 158.3609 67° East  Level Estimated
Fri 06:26:00 AM 42.2866 158.5464 67° East  Level Estimated
Fri 06:27:00 AM 42.3440 158.7322 67° East  Level Estimated
Fri 06:28:00 AM 42.4012 158.9183 67° East  Level Estimated
Fri 06:29:00 AM 42.4581 159.1048 67° East  Level Estimated
Fri 06:30:00 AM 42.5146 159.2916 68° East  Level Estimated
Fri 06:31:00 AM 42.5709 159.4788 68° East  Level Estimated
Fri 06:32:00 AM 42.6268 159.6663 68° East  Level Estimated
Fri 06:33:00 AM 42.6825 159.8542 68° East  Level Estimated
Fri 06:34:00 AM 42.7378 160.0423 68° East  Level Estimated
Fri 06:35:00 AM 42.7933 160.2323 68° East  Level Estimated
Fri 06:36:00 AM 42.8484 160.4226 68° East  Level Estimated
Fri 06:37:00 AM 42.9032 160.6132 69° East  Level Estimated
Fri 06:38:00 AM 42.9577 160.8041 69° East  Level Estimated
Fri 06:39:00 AM 43.0119 160.9954 69° East  Level Estimated
Fri 06:40:00 AM 43.0658 161.1871 69° East  Level Estimated
Fri 06:41:00 AM 43.1193 161.3790 69° East  Level Estimated
Fri 06:42:00 AM 43.1725 161.5713 69° East  Level Estimated
Fri 06:43:00 AM 43.2254 161.7639 69° East  Level Estimated
Fri 06:44:00 AM 43.2780 161.9569 69° East  Level Estimated
Fri 06:45:00 AM 43.3302 162.1502 70° East  Level Estimated
Fri 06:46:00 AM 43.3822 162.3439 70° East  Level Estimated
Fri 06:46:28 AM 44.3500 164.0500 66° East 631 726 39,000  Level Oakland Oceanic (ODAPS)
Fri 06:47:00 AM 43.4338 162.5378 70° East  Level Estimated
Fri 06:48:00 AM 43.4850 162.7321 70° East  Level Estimated
Fri 06:49:00 AM 43.5360 162.9267 70° East  Level Estimated
Fri 06:50:00 AM 44.3500 164.0500 66° East 631 726 39,000  Level Oakland Oceanic (ODAPS)
Fri 06:50:00 AM 43.5866 163.1217 70° East  Level Estimated
Fri 06:51:00 AM 43.6369 163.3170 70° East  Level Estimated
Fri 06:52:00 AM 44.8244 165.6178 68° East 631 726 39,000  Level FlightAware Transoceanic
Fri 06:53:00 AM 44.8904 165.8439 68° East 631 726 39,000  Level FlightAware Transoceanic
Fri 06:54:00 AM 44.9559 166.0704 68° East 631 726 39,000  Level FlightAware Transoceanic
Fri 06:55:00 AM 45.0210 166.2975 68° East 631 726 39,000  Level FlightAware Transoceanic
Fri 06:56:00 AM 45.0857 166.5251 68° East 631 726 39,000  Level FlightAware Transoceanic
Fri 06:57:00 AM 45.1499 166.7532 68° East 631 726 39,000  Level FlightAware Transoceanic
Fri 06:58:00 AM 45.2136 166.9819 68° East 631 726 39,000  Level FlightAware Transoceanic
Fri 06:59:00 AM 45.2769 167.2110 69° East 631 726 39,000  Level FlightAware Transoceanic
Fri 06:59:54 AM 45.2833 167.2000 69° East 631 726 39,000  Level Oakland Oceanic (ODAPS)
Fri 07:00:00 AM 45.3397 167.4406 69° East 631 726 39,000  Level FlightAware Transoceanic
Fri 07:01:00 AM 45.4021 167.6708 69° East 631 726 39,000  Level FlightAware Transoceanic
Fri 07:02:00 AM 45.4640 167.9015 69° East 631 726 39,000  Level FlightAware Transoceanic
Fri 07:03:00 AM 45.5255 168.1326 69° East 631 726 39,000  Level FlightAware Transoceanic
Fri 07:04:00 AM 45.5864 168.3643 69° East 631 726 39,000  Level FlightAware Transoceanic
Fri 07:05:00 AM 45.6469 168.5965 70° East 631 726 39,000  Level FlightAware Transoceanic
Fri 07:06:00 AM 45.7097 168.8246 70° East 631 726 39,000  Level FlightAware Transoceanic
Fri 07:07:00 AM 45.7687 169.0587 70° East 631 726 39,000  Level FlightAware Transoceanic
Fri 07:08:00 AM 45.8273 169.2933 70° East 631 726 39,000  Level FlightAware Transoceanic
Fri 07:09:00 AM 45.8853 169.5284 71° East 631 726 39,000  Level FlightAware Transoceanic
Fri 07:10:00 AM 45.9429 169.7639 71° East 631 726 39,000  Level FlightAware Transoceanic
Fri 07:11:00 AM 46.0000 170.0000 70° East 631 726 39,000  Level FlightAware Transoceanic
Fri 07:12:00 AM 46.0589 170.2346 70° East 631 726 39,000  Level FlightAware Transoceanic
Fri 07:12:11 AM 46.0667 170.2500 70° East 625 719 39,000  Level Oakland Oceanic (ODAPS)
Fri 07:13:00 AM 46.1173 170.4697 70° East 631 726 39,000  Level FlightAware Transoceanic
Fri 07:13:01 AM 46.1167 170.4333 70° East 628 723 39,000  Level Oakland Oceanic (ODAPS)
Fri 07:14:00 AM 46.1753 170.7053 71° East 631 726 39,000  Level FlightAware Transoceanic
Fri 07:15:00 AM 46.2327 170.9414 71° East 631 726 39,000  Level FlightAware Transoceanic
Fri 07:15:48 AM 46.2667 171.1000 71° East 629 724 39,000  Level Oakland Oceanic (ODAPS)
Fri 07:16:00 AM 46.2897 171.1780 71° East 631 726 39,000  Level FlightAware Transoceanic
Fri 07:17:00 AM 46.3461 171.4150 71° East 631 726 39,000  Level FlightAware Transoceanic
Fri 07:18:00 AM 46.4086 171.6659 71° East 625 719 39,000  Level FlightAware Transoceanic
Fri 07:19:00 AM 46.4575 171.8597 71° East 628 723 39,000  Level FlightAware Transoceanic
Fri 07:20:00 AM 46.5125 172.0991 72° East 628 723 39,000  Level FlightAware Transoceanic
Fri 07:21:00 AM 46.5671 172.3390 72° East 628 723 39,000  Level FlightAware Transoceanic
Fri 07:22:00 AM 46.6468 172.7380 72° East 629 724 39,000  Level FlightAware Transoceanic
Fri 07:23:00 AM 46.6992 172.9738 72° East 629 724 39,000  Level FlightAware Transoceanic
Fri 07:24:00 AM 46.7511 173.2102 72° East 629 724 39,000  Level FlightAware Transoceanic
Fri 07:25:00 AM 46.8025 173.4469 72° East 629 724 39,000  Level FlightAware Transoceanic
Fri 07:26:00 AM 46.8534 173.6841 73° East 629 724 39,000  Level FlightAware Transoceanic
Fri 07:26:54 AM 46.8667 173.7667 73° East 629 724 39,000  Level Oakland Oceanic (ODAPS)
Fri 07:27:00 AM 46.9038 173.9218 73° East 629 724 39,000  Level FlightAware Transoceanic
Fri 07:28:00 AM 46.9538 174.1599 73° East 629 724 39,000  Level FlightAware Transoceanic
Fri 07:28:10 AM 46.9333 174.0833 73° East 630 725 39,000  Level Oakland Oceanic (ODAPS)
Fri 07:29:00 AM 47.0032 174.3985 73° East 629 724 39,000  Level FlightAware Transoceanic
Fri 07:30:00 AM 47.0522 174.6375 73° East 629 724 39,000  Level FlightAware Transoceanic
Fri 07:31:00 AM 47.1006 174.8769 74° East 629 724 39,000  Level FlightAware Transoceanic
Fri 07:32:00 AM 47.1486 175.1167 74° East 629 724 39,000  Level FlightAware Transoceanic
Fri 07:33:00 AM 47.1693 175.2377 74° East 629 724 39,000  Level FlightAware Transoceanic
Fri 07:34:00 AM 47.2284 175.5396 74° East 630 725 39,000  Level FlightAware Transoceanic
Fri 07:35:00 AM 47.2757 175.7838 74° East 630 725 39,000  Level FlightAware Transoceanic
Fri 07:36:00 AM 47.3226 176.0285 74° East 630 725 39,000  Level FlightAware Transoceanic
Fri 07:37:00 AM 47.3689 176.2737 75° East 630 725 39,000  Level FlightAware Transoceanic
Fri 07:38:00 AM 47.4147 176.5192 75° East 630 725 39,000  Level FlightAware Transoceanic
Fri 07:39:00 AM 47.4600 176.7652 75° East 630 725 39,000  Level FlightAware Transoceanic
Fri 07:40:00 AM 47.5047 177.0116 75° East 630 725 39,000  Level FlightAware Transoceanic
Fri 07:40:45 AM 47.5333 177.2000 75° East 636 732 39,000  Level Oakland Oceanic (ODAPS)
Fri 07:41:00 AM 47.5489 177.2585 75° East 630 725 39,000  Level FlightAware Transoceanic
Fri 07:42:00 AM 47.5926 177.5057 75° East 630 725 39,000  Level FlightAware Transoceanic
Fri 07:42:25 AM 47.6167 177.6167 76° East 635 731 39,000  Level Oakland Oceanic (ODAPS)
Fri 07:43:00 AM 47.6358 177.7533 76° East 630 725 39,000  Level FlightAware Transoceanic
Fri 07:44:00 AM 47.6784 178.0014 76° East 630 725 39,000  Level FlightAware Transoceanic
Fri 07:45:00 AM 47.7205 178.2498 76° East 630 725 39,000  Level FlightAware Transoceanic
Fri 07:46:00 AM 47.7621 178.4987 76° East 630 725 39,000  Level FlightAware Transoceanic
Fri 07:47:00 AM 47.8138 178.8273 76° East 636 732 39,000  Level FlightAware Transoceanic
Fri 07:48:00 AM 47.8526 179.0425 77° East 635 731 39,000  Level FlightAware Transoceanic
Fri 07:49:00 AM 47.8902 179.2813 77° East 635 731 39,000  Level FlightAware Transoceanic
Fri 07:50:00 AM 47.9273 179.5206 77° East 635 731 39,000  Level FlightAware Transoceanic
Fri 07:51:00 AM 47.9639 179.7601 77° East 635 731 39,000  Level FlightAware Transoceanic
Fri 07:51:52 AM 48.0000 180.0000 78° East 629 724 39,000  Level Oakland Oceanic (ODAPS)
Fri 07:52:00 AM 48.0000 -180.0000 78° East 635 731 39,000  Level FlightAware Transoceanic
Fri 07:53:00 AM 48.0354 -179.7554 78° East 635 731 39,000  Level FlightAware Transoceanic
Fri 07:54:00 AM 48.0703 -179.5105 78° East 635 731 39,000  Level FlightAware Transoceanic
Fri 07:54:55 AM 48.1000 -179.3000 78° East 625 719 39,000  Level Oakland Oceanic (ODAPS)
Fri 07:55:00 AM 48.1047 -179.2652 78° East 635 731 39,000  Level FlightAware Transoceanic
Fri 07:56:00 AM 48.1386 -179.0196 78° East 635 731 39,000  Level FlightAware Transoceanic
Fri 07:57:00 AM 48.1719 -178.7737 79° East 635 731 39,000  Level FlightAware Transoceanic
Fri 07:58:00 AM 48.2150 -178.4497 79° East 629 724 39,000  Level FlightAware Transoceanic
Fri 07:59:00 AM 48.2488 -178.1900 79° East 629 724 39,000  Level FlightAware Transoceanic
Fri 08:00:00 AM 48.2820 -177.9301 79° East 629 724 39,000  Level FlightAware Transoceanic
Fri 08:01:00 AM 48.3333 -177.5196 80° East 625 719 39,000  Level FlightAware Transoceanic
Fri 08:02:00 AM 48.3643 -177.2640 80° East 625 719 39,000  Level FlightAware Transoceanic
Fri 08:03:00 AM 48.3949 -177.0080 80° East 625 719 39,000  Level FlightAware Transoceanic
Fri 08:04:00 AM 48.4248 -176.7518 80° East 625 719 39,000  Level FlightAware Transoceanic
Fri 08:05:00 AM 48.4542 -176.4952 80° East 625 719 39,000  Level FlightAware Transoceanic
Fri 08:06:00 AM 48.4830 -176.2384 80° East 625 719 39,000  Level FlightAware Transoceanic
Fri 08:07:00 AM 48.5112 -175.9813 81° East 625 719 39,000  Level FlightAware Transoceanic
Fri 08:08:00 AM 48.5388 -175.7238 81° East 625 719 39,000  Level FlightAware Transoceanic
Fri 08:08:19 AM 48.5333 -175.7667 81° East 617 710 39,000  Level Oakland Oceanic (ODAPS)
Fri 08:09:00 AM 48.5659 -175.4662 81° East 625 719 39,000  Level FlightAware Transoceanic
Fri 08:10:00 AM 48.5924 -175.2082 81° East 625 719 39,000  Level FlightAware Transoceanic
Fri 08:11:00 AM 48.6184 -174.9499 81° East 625 719 39,000  Level FlightAware Transoceanic
Fri 08:12:00 AM 48.6437 -174.6914 82° East 625 719 39,000  Level FlightAware Transoceanic
Fri 08:13:00 AM 48.6685 -174.4327 82° East 625 719 39,000  Level FlightAware Transoceanic
Fri 08:14:00 AM 48.6827 -174.2731 82° East 617 710 39,000  Level FlightAware Transoceanic
Fri 08:15:00 AM 48.7058 -174.0234 82° East 617 710 39,000  Level FlightAware Transoceanic
Fri 08:16:00 AM 48.7282 -173.7734 82° East 617 710 39,000  Level FlightAware Transoceanic
Fri 08:17:00 AM 48.7502 -173.5232 83° East 617 710 39,000  Level FlightAware Transoceanic
Fri 08:18:00 AM 48.7716 -173.2728 83° East 617 710 39,000  Level FlightAware Transoceanic
Fri 08:19:00 AM 48.7924 -173.0221 83° East 617 710 39,000  Level FlightAware Transoceanic
Fri 08:20:00 AM 48.8127 -172.7713 83° East 617 710 39,000  Level FlightAware Transoceanic
Fri 08:21:00 AM 48.8325 -172.5203 83° East 617 710 39,000  Level FlightAware Transoceanic
Fri 08:22:00 AM 48.8517 -172.2690 83° East 617 710 39,000  Level FlightAware Transoceanic
Fri 08:23:00 AM 48.8704 -172.0176 84° East 617 710 39,000  Level FlightAware Transoceanic
Fri 08:23:04 AM 48.8500 -172.2833 83° East 599 689 39,000  Level Oakland Oceanic (ODAPS)
Fri 08:24:00 AM 48.8885 -171.7660 84° East 617 710 39,000  Level FlightAware Transoceanic
Fri 08:25:00 AM 48.9061 -171.5142 84° East 617 710 39,000  Level FlightAware Transoceanic
Fri 08:26:00 AM 48.9231 -171.2622 84° East 617 710 39,000  Level FlightAware Transoceanic
Fri 08:27:00 AM 48.9396 -171.0101 84° East 617 710 39,000  Level FlightAware Transoceanic
Fri 08:28:00 AM 48.9555 -170.7578 85° East 617 710 39,000  Level FlightAware Transoceanic
Fri 08:29:00 AM 48.9706 -170.5086 85° East 599 689 39,000  Level FlightAware Transoceanic
Fri 08:30:00 AM 48.9856 -170.2544 85° East 599 689 39,000  Level FlightAware Transoceanic
Fri 08:31:00 AM 49.0000 -170.0000 77° East 599 689 39,000  Level FlightAware Transoceanic
Fri 08:31:26 AM 49.0000 -170.0000 77° East 590 679 39,000  Level Oakland Oceanic (ODAPS)
Fri 08:32:00 AM 49.0329 -169.7726 78° East 599 689 39,000  Level FlightAware Transoceanic
Fri 08:33:00 AM 49.0654 -169.5450 78° East 599 689 39,000  Level FlightAware Transoceanic
Fri 08:34:00 AM 49.0974 -169.3171 78° East 599 689 39,000  Level FlightAware Transoceanic
Fri 08:35:00 AM 49.1290 -169.0888 78° East 599 689 39,000  Level FlightAware Transoceanic
Fri 08:36:00 AM 49.1601 -168.8603 78° East 599 689 39,000  Level FlightAware Transoceanic
Fri 08:36:07 AM 49.1667 -168.8667 78° East 578 665 39,000  Level Oakland Oceanic (ODAPS)
Fri 08:37:00 AM 49.2045 -168.5284 79° East 590 679 39,000  Level FlightAware Transoceanic
Fri 08:38:00 AM 49.2367 -168.2820 79° East 590 679 39,000  Level FlightAware Transoceanic
Fri 08:39:00 AM 49.2685 -168.0353 79° East 590 679 39,000  Level FlightAware Transoceanic
Fri 08:40:00 AM 49.2997 -167.7882 79° East 590 679 39,000  Level FlightAware Transoceanic
Fri 08:41:00 AM 49.3303 -167.5409 79° East 590 679 39,000  Level FlightAware Transoceanic
Fri 08:42:00 AM 49.3523 -167.4117 79° East 578 665 39,000  Level FlightAware Transoceanic
Fri 08:43:00 AM 49.3814 -167.1681 80° East 578 665 39,000  Level FlightAware Transoceanic
Fri 08:44:00 AM 49.4101 -166.9243 80° East 578 665 39,000  Level FlightAware Transoceanic
Fri 08:45:00 AM 49.4382 -166.6802 80° East 578 665 39,000  Level FlightAware Transoceanic
Fri 08:46:00 AM 49.4658 -166.4358 80° East 578 665 39,000  Level FlightAware Transoceanic
Fri 08:47:00 AM 49.4929 -166.1911 80° East 578 665 39,000  Level FlightAware Transoceanic
Fri 08:48:00 AM 49.5195 -165.9462 81° East 578 665 39,000  Level FlightAware Transoceanic
Fri 08:49:00 AM 49.5455 -165.7010 81° East 578 665 39,000  Level FlightAware Transoceanic
Fri 08:49:57 AM 49.5500 -165.5500 81° East 566 651 39,000  Level Oakland Oceanic (ODAPS)
Fri 08:50:00 AM 49.5711 -165.4556 81° East 578 665 39,000  Level FlightAware Transoceanic
Fri 08:51:00 AM 49.5961 -165.2099 81° East 578 665 39,000  Level FlightAware Transoceanic
Fri 08:52:00 AM 49.6206 -164.9639 81° East 578 665 39,000  Level FlightAware Transoceanic
Fri 08:53:00 AM 49.6446 -164.7177 82° East 578 665 39,000  Level FlightAware Transoceanic
Fri 08:54:00 AM 49.6680 -164.4713 82° East 578 665 39,000  Level FlightAware Transoceanic
Fri 08:55:00 AM 49.6910 -164.2246 82° East 578 665 39,000  Level FlightAware Transoceanic
Fri 08:56:00 AM 49.6929 -164.1125 82° East 566 651 39,000  Level FlightAware Transoceanic
Fri 08:57:00 AM 49.7150 -163.8722 82° East 566 651 39,000  Level FlightAware Transoceanic
Fri 08:58:00 AM 49.7365 -163.6316 82° East 566 651 39,000  Level FlightAware Transoceanic
Fri 08:59:00 AM 49.7576 -163.3908 82° East 566 651 39,000  Level FlightAware Transoceanic
Fri 09:00:00 AM 49.7782 -163.1498 83° East 566 651 39,000  Level FlightAware Transoceanic
Fri 09:01:00 AM 49.7983 -162.9086 83° East 566 651 39,000  Level FlightAware Transoceanic
Fri 09:02:00 AM 49.8179 -162.6672 83° East 566 651 39,000  Level FlightAware Transoceanic
Fri 09:03:00 AM 49.8369 -162.4256 83° East 566 651 39,000  Level FlightAware Transoceanic
Fri 09:03:53 AM 49.8500 -162.3500 83° East 541 623 39,000  Level Oakland Oceanic (ODAPS)
Fri 09:04:00 AM 49.8555 -162.1838 83° East 566 651 39,000  Level FlightAware Transoceanic
Fri 09:05:00 AM 49.8736 -161.9418 83° East 566 651 39,000  Level FlightAware Transoceanic
Fri 09:06:00 AM 49.8912 -161.6996 84° East 566 651 39,000  Level FlightAware Transoceanic
Fri 09:07:00 AM 49.9082 -161.4573 84° East 566 651 39,000  Level FlightAware Transoceanic
Fri 09:08:00 AM 49.9248 -161.2148 84° East 566 651 39,000  Level FlightAware Transoceanic
Fri 09:09:00 AM 49.9408 -160.9722 84° East 566 651 39,000  Level FlightAware Transoceanic
Fri 09:10:00 AM 49.9457 -160.9417 85° East 541 623 39,000  Level FlightAware Transoceanic
Fri 09:11:00 AM 49.9600 -160.7065 85° East 541 623 39,000  Level FlightAware Transoceanic
Fri 09:12:00 AM 49.9738 -160.4711 85° East 541 623 39,000  Level FlightAware Transoceanic
Fri 09:13:00 AM 49.9871 -160.2356 85° East 541 623 39,000  Level FlightAware Transoceanic
Fri 09:14:00 AM 50.0000 -160.0000 95° East 541 623 39,000 -5,625 Level FlightAware Transoceanic
Fri 09:14:04 AM 50.0000 -160.0000 95° East 552 635 33,000  Descending Oakland Oceanic (ODAPS)
Fri 09:15:00 AM 49.9875 -159.7788 95° East 541 623 39,000 3,103 Climbing FlightAware Transoceanic
Fri 09:16:00 AM 49.9747 -159.5578 95° East 541 623 39,000  Level FlightAware Transoceanic
Fri 09:17:00 AM 49.9613 -159.3368 95° East 541 623 39,000 -3,495 Level FlightAware Transoceanic
Fri 09:17:43 AM 49.9500 -159.1167 96° East 551 634 33,000  Descending Oakland Oceanic (ODAPS)
Fri 09:18:00 AM 49.9476 -159.1160 96° East 541 623 39,000 4,675 Climbing FlightAware Transoceanic
Fri 09:19:00 AM 49.9335 -158.8953 96° East 541 623 39,000 -3,000 Level FlightAware Transoceanic
Fri 09:20:00 AM 49.9127 -158.5824 96° East 552 635 33,000 -3,000 Descending FlightAware Transoceanic
Fri 09:21:00 AM 49.8965 -158.3467 96° East 552 635 33,000  Level FlightAware Transoceanic
Fri 09:22:00 AM 49.8798 -158.1111 96° East 552 635 33,000  Level FlightAware Transoceanic
Fri 09:23:00 AM 49.8626 -157.8757 97° East 552 635 33,000  Level FlightAware Transoceanic
Fri 09:24:00 AM 49.8359 -157.4976 97° East 551 634 33,000  Level FlightAware Transoceanic
Fri 09:25:00 AM 49.8177 -157.2670 97° East 551 634 33,000  Level FlightAware Transoceanic
Fri 09:26:00 AM 49.7992 -157.0365 97° East 551 634 33,000  Level FlightAware Transoceanic
Fri 09:27:00 AM 49.7801 -156.8062 97° East 551 634 33,000  Level FlightAware Transoceanic
Fri 09:28:00 AM 49.7606 -156.5761 98° East 551 634 33,000  Level FlightAware Transoceanic
Fri 09:29:00 AM 49.7406 -156.3462 98° East 551 634 33,000  Level FlightAware Transoceanic
Fri 09:30:00 AM 49.7202 -156.1164 98° East 551 634 33,000  Level FlightAware Transoceanic
Fri 09:31:00 AM 49.6993 -155.8869 98° East 551 634 33,000 3,789 Level FlightAware Transoceanic
Fri 09:31:35 AM 49.7000 -155.9333 98° East 528 608 39,000  Climbing Oakland Oceanic (ODAPS)
Fri 09:32:00 AM 49.6780 -155.6576 98° East 551 634 33,000 -4,235 Descending FlightAware Transoceanic
Fri 09:33:00 AM 49.6562 -155.4285 98° East 551 634 33,000  Level FlightAware Transoceanic
Fri 09:34:00 AM 49.6340 -155.1995 99° East 551 634 33,000  Level FlightAware Transoceanic
Fri 09:35:00 AM 49.6113 -154.9708 99° East 551 634 33,000  Level FlightAware Transoceanic
Fri 09:36:00 AM 49.5882 -154.7423 99° East 551 634 33,000  Level FlightAware Transoceanic
Fri 09:37:00 AM 49.5646 -154.5140 99° East 551 634 33,000 3,000 Level FlightAware Transoceanic
Fri 09:38:00 AM 49.5478 -154.3793 99° East 528 608 39,000 3,000 Climbing FlightAware Transoceanic
Fri 09:39:00 AM 49.5244 -154.1582 99° East 528 608 39,000  Level FlightAware Transoceanic
Fri 09:40:00 AM 49.5005 -153.9372 100° East 528 608 39,000  Level FlightAware Transoceanic
Fri 09:41:00 AM 49.4762 -153.7164 100° East 528 608 39,000  Level FlightAware Transoceanic
Fri 09:42:00 AM 49.4515 -153.4959 100° East 528 608 39,000  Level FlightAware Transoceanic
Fri 09:43:00 AM 49.4264 -153.2756 100° East 528 608 39,000  Level FlightAware Transoceanic
Fri 09:44:00 AM 49.4009 -153.0555 100° East 528 608 39,000  Level FlightAware Transoceanic
Fri 09:45:00 AM 49.3749 -152.8356 100° East 528 608 39,000  Level FlightAware Transoceanic
Fri 09:45:27 AM 49.3833 -152.8667 100° East 513 590 39,000  Level Oakland Oceanic (ODAPS)
Fri 09:46:00 AM 49.3486 -152.6160 101° East 528 608 39,000  Level FlightAware Transoceanic
Fri 09:47:00 AM 49.3218 -152.3966 101° East 528 608 39,000  Level FlightAware Transoceanic
Fri 09:48:00 AM 49.2946 -152.1775 101° East 528 608 39,000  Level FlightAware Transoceanic
Fri 09:49:00 AM 49.2670 -151.9586 101° East 528 608 39,000  Level FlightAware Transoceanic
Fri 09:50:00 AM 49.2390 -151.7400 101° East 528 608 39,000  Level FlightAware Transoceanic
Fri 09:51:00 AM 49.2277 -151.6327 101° East 513 590 39,000  Level FlightAware Transoceanic
Fri 09:52:00 AM 49.2005 -151.4278 102° East 513 590 39,000  Level FlightAware Transoceanic
Fri 09:53:00 AM 49.1730 -151.2231 102° East 513 590 39,000  Level FlightAware Transoceanic
Fri 09:54:00 AM 49.1450 -151.0187 102° East 513 590 39,000  Level FlightAware Transoceanic
Fri 09:55:00 AM 49.1167 -150.8145 102° East 513 590 39,000  Level FlightAware Transoceanic
Fri 09:56:00 AM 49.0881 -150.6105 102° East 513 590 39,000  Level FlightAware Transoceanic
Fri 09:57:00 AM 49.0591 -150.4068 102° East 513 590 39,000  Level FlightAware Transoceanic
Fri 09:58:00 AM 49.0297 -150.2033 102° East 513 590 39,000  Level FlightAware Transoceanic
Fri 09:59:00 AM 49.0000 -150.0000 103° East 513 590 39,000  Level FlightAware Transoceanic
Fri 09:59:00 AM 49.0000 -150.0000 103° East 503 579 39,000  Level Oakland Oceanic (ODAPS)
Fri 09:59:21 AM 48.9833 -149.9333 103° East 504 580 39,000  Level Oakland Oceanic (ODAPS)
Fri 10:00:00 AM 48.9687 -149.7928 103° East 513 590 39,000  Level FlightAware Transoceanic
Fri 10:01:00 AM 48.9370 -149.5858 103° East 513 590 39,000  Level FlightAware Transoceanic
Fri 10:02:00 AM 48.9050 -149.3791 103° East 513 590 39,000  Level FlightAware Transoceanic
Fri 10:03:00 AM 48.8726 -149.1726 104° East 513 590 39,000  Level FlightAware Transoceanic
Fri 10:04:00 AM 48.8398 -148.9665 104° East 513 590 39,000  Level FlightAware Transoceanic
Fri 10:05:00 AM 48.7914 -148.7025 104° East 504 580 39,000  Level FlightAware Transoceanic
Fri 10:06:00 AM 48.7581 -148.4983 104° East 504 580 39,000  Level FlightAware Transoceanic
Fri 10:07:00 AM 48.7245 -148.2943 104° East 504 580 39,000  Level FlightAware Transoceanic
Fri 10:08:00 AM 48.6906 -148.0907 104° East 504 580 39,000  Level FlightAware Transoceanic
Fri 10:09:00 AM 48.6562 -147.8873 104° East 504 580 39,000  Level FlightAware Transoceanic
Fri 10:10:00 AM 48.6215 -147.6842 105° East 504 580 39,000  Level FlightAware Transoceanic
Fri 10:11:00 AM 48.5865 -147.4813 105° East 504 580 39,000  Level FlightAware Transoceanic
Fri 10:12:00 AM 48.5511 -147.2788 105° East 504 580 39,000  Level FlightAware Transoceanic
Fri 10:13:00 AM 48.5153 -147.0765 105° East 504 580 39,000  Level FlightAware Transoceanic
Fri 10:13:12 AM 48.5167 -147.0833 105° East 507 583 39,000  Level Oakland Oceanic (ODAPS)
Fri 10:14:00 AM 48.4792 -146.8745 105° East 504 580 39,000  Level FlightAware Transoceanic
Fri 10:15:00 AM 48.4427 -146.6729 105° East 504 580 39,000  Level FlightAware Transoceanic
Fri 10:16:00 AM 48.4059 -146.4715 105° East 504 580 39,000  Level FlightAware Transoceanic
Fri 10:17:00 AM 48.3687 -146.2704 106° East 504 580 39,000  Level FlightAware Transoceanic
Fri 10:18:00 AM 48.3312 -146.0695 106° East 504 580 39,000  Level FlightAware Transoceanic
Fri 10:19:00 AM 48.2945 -145.8746 106° East 507 583 39,000  Level FlightAware Transoceanic
Fri 10:20:00 AM 48.2563 -145.6742 106° East 507 583 39,000  Level FlightAware Transoceanic
Fri 10:21:00 AM 48.2177 -145.4741 106° East 507 583 39,000  Level FlightAware Transoceanic
Fri 10:22:00 AM 48.1787 -145.2743 106° East 507 583 39,000  Level FlightAware Transoceanic
Fri 10:23:00 AM 48.1395 -145.0748 107° East 507 583 39,000  Level FlightAware Transoceanic
Fri 10:24:00 AM 48.0998 -144.8756 107° East 507 583 39,000  Level FlightAware Transoceanic
Fri 10:25:00 AM 48.0598 -144.6767 107° East 507 583 39,000  Level FlightAware Transoceanic
Fri 10:26:00 AM 48.0195 -144.4782 107° East 507 583 39,000  Level FlightAware Transoceanic
Fri 10:27:00 AM 47.9789 -144.2799 107° East 507 583 39,000  Level FlightAware Transoceanic
Fri 10:27:04 AM 47.9667 -144.2500 107° East 504 580 39,000  Level Oakland Oceanic (ODAPS)
Fri 10:28:00 AM 47.9379 -144.0819 107° East 507 583 39,000  Level FlightAware Transoceanic
Fri 10:29:00 AM 47.8965 -143.8843 107° East 507 583 39,000  Level FlightAware Transoceanic
Fri 10:30:00 AM 47.8549 -143.6870 108° East 507 583 39,000  Level FlightAware Transoceanic
Fri 10:31:00 AM 47.8128 -143.4900 108° East 507 583 39,000  Level FlightAware Transoceanic
Fri 10:32:00 AM 47.7705 -143.2933 108° East 507 583 39,000  Level FlightAware Transoceanic
Fri 10:33:00 AM 47.7066 -143.0199 108° East 504 580 39,000  Level FlightAware Transoceanic
Fri 10:34:00 AM 47.6620 -142.8160 108° East 504 580 39,000  Level FlightAware Transoceanic
Fri 10:35:00 AM 47.6170 -142.6126 108° East 504 580 39,000  Level FlightAware Transoceanic
Fri 10:36:00 AM 47.5716 -142.4095 108° East 504 580 39,000  Level FlightAware Transoceanic
Fri 10:37:00 AM 47.5260 -142.2067 109° East 504 580 39,000  Level FlightAware Transoceanic
Fri 10:38:00 AM 47.4799 -142.0043 109° East 504 580 39,000  Level FlightAware Transoceanic
Fri 10:39:00 AM 47.4335 -141.8022 109° East 504 580 39,000  Level FlightAware Transoceanic
Fri 10:40:00 AM 47.3867 -141.6005 109° East 504 580 39,000  Level FlightAware Transoceanic
Fri 10:40:59 AM 47.3667 -141.5167 109° East 501 577 39,000  Level Oakland Oceanic (ODAPS)
Fri 10:41:00 AM 47.3396 -141.3992 109° East 504 580 39,000  Level FlightAware Transoceanic
Fri 10:42:00 AM 47.2921 -141.1982 109° East 504 580 39,000  Level FlightAware Transoceanic
Fri 10:43:00 AM 47.2443 -140.9976 109° East 504 580 39,000  Level FlightAware Transoceanic
Fri 10:44:00 AM 47.1962 -140.7973 110° East 504 580 39,000  Level FlightAware Transoceanic
Fri 10:45:00 AM 47.1476 -140.5975 110° East 504 580 39,000  Level FlightAware Transoceanic
Fri 10:46:00 AM 47.0988 -140.3979 110° East 504 580 39,000  Level FlightAware Transoceanic
Fri 10:47:00 AM 47.0935 -140.3772 110° East 501 577 39,000  Level FlightAware Transoceanic
Fri 10:48:00 AM 47.0469 -140.1884 110° East 501 577 39,000  Level FlightAware Transoceanic
Fri 10:48:55 AM 47.0000 -140.0000 116° Southeast 489 563 39,000  Level Oakland Oceanic (ODAPS)
Fri 10:49:00 AM 47.0000 -140.0000 116° Southeast 501 577 39,000  Level FlightAware Transoceanic
Fri 10:50:00 AM 46.9408 -139.8218 116° Southeast 501 577 39,000  Level FlightAware Transoceanic
Fri 10:51:00 AM 46.8814 -139.6440 116° Southeast 501 577 39,000  Level FlightAware Transoceanic
Fri 10:52:00 AM 46.8216 -139.4665 116° Southeast 501 577 39,000  Level FlightAware Transoceanic
Fri 10:53:00 AM 46.7616 -139.2895 116° Southeast 501 577 39,000  Level FlightAware Transoceanic
Fri 10:54:00 AM 46.7013 -139.1128 117° Southeast 501 577 39,000  Level FlightAware Transoceanic
Fri 10:54:47 AM 46.6500 -138.9667 117° Southeast 487 560 39,000  Level Oakland Oceanic (ODAPS)
Fri 10:55:00 AM 46.6408 -138.9366 117° Southeast 489 563 39,000  Level FlightAware Transoceanic
Fri 10:56:00 AM 46.5799 -138.7607 117° Southeast 489 563 39,000  Level FlightAware Transoceanic
Fri 10:57:00 AM 46.5188 -138.5853 117° Southeast 489 563 39,000  Level FlightAware Transoceanic
Fri 10:58:00 AM 46.4575 -138.4102 117° Southeast 489 563 39,000  Level FlightAware Transoceanic
Fri 10:59:00 AM 46.3958 -138.2356 117° Southeast 489 563 39,000  Level FlightAware Transoceanic
Fri 11:00:00 AM 46.3340 -138.0613 117° Southeast 489 563 39,000  Level FlightAware Transoceanic
Fri 11:01:00 AM 46.2803 -137.9138 117° Southeast 487 560 39,000  Level FlightAware Transoceanic
Fri 11:02:00 AM 46.2177 -137.7397 118° Southeast 487 560 39,000  Level FlightAware Transoceanic
Fri 11:03:00 AM 46.1549 -137.5660 118° Southeast 487 560 39,000  Level FlightAware Transoceanic
Fri 11:04:00 AM 46.0918 -137.3927 118° Southeast 487 560 39,000  Level FlightAware Transoceanic
Fri 11:05:00 AM 46.0284 -137.2198 118° Southeast 487 560 39,000  Level FlightAware Transoceanic
Fri 11:06:00 AM 45.9648 -137.0473 118° Southeast 487 560 39,000  Level FlightAware Transoceanic
Fri 11:07:00 AM 45.9010 -136.8752 118° Southeast 487 560 39,000  Level FlightAware Transoceanic
Fri 11:08:00 AM 45.8368 -136.7035 118° Southeast 487 560 39,000  Level FlightAware Transoceanic
Fri 11:08:41 AM 45.7833 -136.5667 118° Southeast 485 558 39,000  Level Oakland Oceanic (ODAPS)
Fri 11:09:00 AM 45.7725 -136.5322 118° Southeast 487 560 39,000  Level FlightAware Transoceanic
Fri 11:10:00 AM 45.7078 -136.3613 119° Southeast 487 560 39,000  Level FlightAware Transoceanic
Fri 11:11:00 AM 45.6429 -136.1908 119° Southeast 487 560 39,000  Level FlightAware Transoceanic
Fri 11:12:00 AM 45.5778 -136.0206 119° Southeast 487 560 39,000  Level FlightAware Transoceanic
Fri 11:13:00 AM 45.5124 -135.8509 119° Southeast 487 560 39,000  Level FlightAware Transoceanic
Fri 11:14:00 AM 45.4468 -135.6816 119° Southeast 487 560 39,000  Level FlightAware Transoceanic
Fri 11:15:00 AM 45.3353 -135.4010 119° Southeast 485 558 39,000  Level FlightAware Transoceanic
Fri 11:16:00 AM 45.2704 -135.2360 119° Southeast 485 558 39,000  Level FlightAware Transoceanic
Fri 11:17:00 AM 45.2052 -135.0714 119° Southeast 485 558 39,000  Level FlightAware Transoceanic
Fri 11:18:00 AM 45.1397 -134.9071 120° Southeast 485 558 39,000  Level FlightAware Transoceanic
Fri 11:19:00 AM 45.0741 -134.7432 120° Southeast 485 558 39,000  Level FlightAware Transoceanic
Fri 11:20:00 AM 45.0082 -134.5797 120° Southeast 485 558 39,000  Level FlightAware Transoceanic
Fri 11:21:00 AM 44.9420 -134.4166 120° Southeast 485 558 39,000  Level FlightAware Transoceanic
Fri 11:22:00 AM 44.8757 -134.2539 120° Southeast 485 558 39,000  Level FlightAware Transoceanic
Fri 11:22:31 AM 44.8833 -134.2500 120° Southeast 482 555 39,000  Level Oakland Oceanic (ODAPS)
Fri 11:23:00 AM 44.8091 -134.0915 120° Southeast 485 558 39,000  Level FlightAware Transoceanic
Fri 11:24:00 AM 44.7422 -133.9295 120° Southeast 485 558 39,000  Level FlightAware Transoceanic
Fri 11:25:00 AM 44.6752 -133.7679 120° Southeast 485 558 39,000  Level FlightAware Transoceanic
Fri 11:26:00 AM 44.6079 -133.6066 120° Southeast 485 558 39,000  Level FlightAware Transoceanic
Fri 11:27:00 AM 44.5404 -133.4458 121° Southeast 485 558 39,000  Level FlightAware Transoceanic
Fri 11:28:00 AM 44.4786 -133.2822 121° Southeast 482 555 39,000  Level FlightAware Transoceanic
Fri 11:29:00 AM 44.4103 -133.1222 121° Southeast 482 555 39,000  Level FlightAware Transoceanic
Fri 11:30:00 AM 44.3419 -132.9626 121° Southeast 482 555 39,000  Level FlightAware Transoceanic
Fri 11:31:00 AM 44.2732 -132.8033 121° Southeast 482 555 39,000  Level FlightAware Transoceanic
Fri 11:32:00 AM 44.2043 -132.6445 121° Southeast 482 555 39,000  Level FlightAware Transoceanic
Fri 11:33:00 AM 44.1351 -132.4859 121° Southeast 482 555 39,000  Level FlightAware Transoceanic
Fri 11:34:00 AM 44.0658 -132.3278 121° Southeast 482 555 39,000  Level FlightAware Transoceanic
Fri 11:35:00 AM 43.9962 -132.1701 122° Southeast 482 555 39,000  Level FlightAware Transoceanic
Fri 11:36:00 AM 43.9264 -132.0127 122° Southeast 482 555 39,000  Level FlightAware Transoceanic
Fri 11:36:29 AM 43.9500 -132.0667 122° Southeast 474 545 39,000  Level Oakland Oceanic (ODAPS)
Fri 11:37:00 AM 43.8564 -131.8557 122° Southeast 482 555 39,000  Level FlightAware Transoceanic
Fri 11:38:00 AM 43.7862 -131.6990 122° Southeast 482 555 39,000  Level FlightAware Transoceanic
Fri 11:39:00 AM 43.7158 -131.5427 122° Southeast 482 555 39,000  Level FlightAware Transoceanic
Fri 11:40:00 AM 43.6451 -131.3868 122° Southeast 482 555 39,000  Level FlightAware Transoceanic
Fri 11:41:00 AM 43.5743 -131.2313 122° Southeast 482 555 39,000  Level FlightAware Transoceanic
Fri 11:42:00 AM 43.5474 -131.1730 122° Southeast 474 545 39,000  Level FlightAware Transoceanic
Fri 11:43:00 AM 43.4796 -131.0252 122° Southeast 474 545 39,000  Level FlightAware Transoceanic
Fri 11:44:00 AM 43.4117 -130.8778 122° Southeast 474 545 39,000  Level FlightAware Transoceanic
Fri 11:45:00 AM 43.3436 -130.7306 123° Southeast 474 545 39,000  Level FlightAware Transoceanic
Fri 11:46:00 AM 43.2752 -130.5839 123° Southeast 474 545 39,000  Level FlightAware Transoceanic
Fri 11:47:00 AM 43.2067 -130.4374 123° Southeast 474 545 39,000  Level FlightAware Transoceanic
Fri 11:48:00 AM 43.1380 -130.2913 123° Southeast 474 545 39,000  Level FlightAware Transoceanic
Fri 11:49:00 AM 43.0691 -130.1455 123° Southeast 474 545 39,000  Level FlightAware Transoceanic
Fri 11:49:56 AM 43.0000 -130.0000 116° Southeast 480 552 39,000  Level Oakland Oceanic (ODAPS)
Fri 11:50:00 AM 43.0000 -130.0000 116° Southeast 474 545 39,000  Level FlightAware Transoceanic
Fri 11:50:16 AM 42.9667 -129.9333 116° Southeast 481 554 39,000  Level Oakland Oceanic (ODAPS)
Fri 11:51:00 AM 42.9382 -129.8303 117° Southeast 474 545 39,000  Level FlightAware Transoceanic
Fri 11:52:00 AM 42.8761 -129.6609 117° Southeast 474 545 39,000  Level FlightAware Transoceanic
Fri 11:53:00 AM 42.8137 -129.4918 117° Southeast 474 545 39,000  Level FlightAware Transoceanic
Fri 11:54:00 AM 42.7512 -129.3231 117° Southeast 474 545 39,000  Level FlightAware Transoceanic
Fri 11:55:00 AM 42.6883 -129.1548 117° Southeast 474 545 39,000  Level FlightAware Transoceanic
Fri 11:56:00 AM 42.6021 -128.9418 117° Southeast 481 554 39,000  Level FlightAware Transoceanic
Fri 11:57:00 AM 42.5405 -128.7776 117° Southeast 481 554 39,000  Level FlightAware Transoceanic
Fri 11:58:00 AM 42.4786 -128.6138 117° Southeast 481 554 39,000  Level FlightAware Transoceanic
Fri 11:59:00 AM 42.4166 -128.4503 117° Southeast 481 554 39,000  Level FlightAware Transoceanic
Fri 12:00:00 PM 42.3543 -128.2872 117° Southeast 481 554 39,000  Level FlightAware Transoceanic
Fri 12:01:00 PM 42.2917 -128.1244 118° Southeast 481 554 39,000  Level FlightAware Transoceanic
Fri 12:02:00 PM 42.2290 -127.9619 118° Southeast 481 554 39,000  Level FlightAware Transoceanic
Fri 12:03:00 PM 42.1660 -127.7997 118° Southeast 481 554 39,000  Level FlightAware Transoceanic
Fri 12:04:00 PM 42.1028 -127.6378 118° Southeast 481 554 39,000  Level FlightAware Transoceanic
Fri 12:04:04 PM 42.1333 -127.6833 119° Southeast 490 564 39,000  Level Oakland Oceanic (ODAPS)
Fri 12:05:00 PM 42.0393 -127.4763 118° Southeast 481 554 39,000  Level FlightAware Transoceanic
Fri 12:06:00 PM 41.9757 -127.3150 118° Southeast 481 554 39,000  Level FlightAware Transoceanic
Fri 12:06:02 PM 42.0014 -127.3553 134° Southeast 489 563 39,000  Level Oakland Center
Fri 12:07:00 PM 41.9118 -127.1542 118° Southeast 481 554 39,000  Level FlightAware Transoceanic
Fri 12:07:01 PM 41.9361 -127.1956 119° Southeast 489 563 39,000  Level Seattle Center
Fri 12:08:00 PM 41.8477 -126.9936 118° Southeast 481 554 39,000 -98 Level FlightAware Transoceanic
Fri 12:08:02 PM 41.8706 -127.0325 118° Southeast 495 570 38,900  Descending Seattle Center
Fri 12:09:00 PM 41.7833 -126.8333 134° Southeast 481 554 39,000 98 Climbing FlightAware Transoceanic
Fri 12:09:03 PM 41.8061 -126.8722 118° Southeast 492 566 39,000  Level Seattle Center
Fri 12:10:00 PM 41.6876 -126.7009 134° Southeast 490 564 39,000 -98 Level FlightAware Transoceanic
Fri 12:10:04 PM 41.7181 -126.7336 130° Southeast 494 568 38,900  Descending Seattle Center
Fri 12:11:00 PM 41.5918 -126.5688 134° Southeast 490 564 39,000 98 Climbing FlightAware Transoceanic
Fri 12:11:05 PM 41.6225 -126.6008 134° Southeast 496 571 39,000 -83 Level Seattle Center
Fri 12:12:12 PM 41.5114 -126.4425 133° Southeast 492 566 38,900  Descending Oakland Center
Fri 12:13:13 PM 41.4131 -126.3150 136° Southeast 493 567 39,000  Climbing Oakland Center
Fri 12:14:09 PM 41.3369 -126.2100 134° Southeast 492 566 38,900 -51 Descending Seattle Center
Fri 12:15:10 PM 41.2417 -126.0817 135° Southeast 491 565 38,900  Level Seattle Center
Fri 12:16:11 PM 41.1469 -125.9519 134° Southeast 490 564 38,900 49 Level Seattle Center
Fri 12:17:12 PM 41.0303 -125.7972 135° Southeast 494 568 39,000  Climbing Seattle Center
Fri 12:18:13 PM 40.9344 -125.6681 134° Southeast 495 570 38,900  Descending Seattle Center
Fri 12:19:14 PM 40.8358 -125.5394 135° Southeast 497 572 39,000 15 Climbing Seattle Center
Fri 12:25:04 PM 40.2400 -124.8020 135° Southeast 500 575 39,000  Level FlightAware ADS-B
Fri 12:25:34 PM 40.1890 -124.7440 139° Southeast 499 574 39,000  Level FlightAware ADS-B
Fri 12:26:12 PM 40.1320 -124.6790 139° Southeast 499 574 39,000  Level FlightAware ADS-B
Fri 12:26:50 PM 40.0760 -124.6130 138° Southeast 499 574 39,000  Level FlightAware ADS-B
Fri 12:27:24 PM 39.9990 -124.5280 140° Southeast 498 573 39,000  Level FlightAware ADS-B
Fri 12:27:58 PM 39.9390 -124.4600 139° Southeast 499 574 39,000  Level FlightAware ADS-B
Fri 12:28:30 PM 39.8830 -124.3970 139° Southeast 499 574 39,000  Level FlightAware ADS-B
Fri 12:29:04 PM 39.8220 -124.3290 139° Southeast 499 574 39,000  Level FlightAware ADS-B
Fri 12:29:42 PM 39.7620 -124.2610 139° Southeast 493 567 39,000  Level FlightAware ADS-B
Fri 12:30:20 PM 39.6910 -124.1830 140° Southeast 499 574 39,000  Level FlightAware ADS-B
Fri 12:30:50 PM 39.6370 -124.1220 139° Southeast 499 574 39,000  Level FlightAware ADS-B
Fri 12:31:28 PM 39.5710 -124.0480 139° Southeast 499 574 39,000  Level FlightAware ADS-B
Fri 12:32:02 PM 39.5120 -123.9830 140° Southeast 500 575 39,000  Level FlightAware ADS-B
Fri 12:32:40 PM 39.4480 -123.9120 139° Southeast 500 575 39,000  Level FlightAware ADS-B
Fri 12:33:10 PM 39.3910 -123.8490 139° Southeast 500 575 39,000  Level FlightAware ADS-B
Fri 12:33:48 PM 39.3240 -123.7760 140° Southeast 500 575 39,000  Level FlightAware ADS-B
Fri 12:34:24 PM 39.2610 -123.7060 139° Southeast 500 575 39,000  Level FlightAware ADS-B
Fri 12:34:58 PM 39.2020 -123.6410 140° Southeast 499 574 39,000  Level FlightAware ADS-B
Fri 12:35:46 PM 39.1200 -123.5520 140° Southeast 492 566 39,000  Level FlightAware ADS-B
Fri 12:36:21 PM 39.0580 -123.4850 140° Southeast 493 567 39,000  Level FlightAware ADS-B
Fri 12:36:56 PM 38.9960 -123.4170 140° Southeast 492 566 39,000  Level FlightAware ADS-B
Fri 12:37:32 PM 38.9410 -123.3570 140° Southeast 492 566 39,000  Level FlightAware ADS-B
Fri 12:38:02 PM 38.8810 -123.2920 140° Southeast 492 566 39,000  Level FlightAware ADS-B
Fri 12:38:42 PM 38.8110 -123.2160 140° Southeast 492 566 39,000  Level FlightAware ADS-B
Fri 12:39:17 PM 38.7500 -123.1500 140° Southeast 493 567 39,000  Level FlightAware ADS-B
Fri 12:39:52 PM 38.6880 -123.0840 140° Southeast 494 568 39,000  Level FlightAware ADS-B
Fri 12:40:28 PM 38.6230 -123.0130 140° Southeast 501 577 39,000  Level FlightAware ADS-B
Fri 12:41:02 PM 38.5610 -122.9460 140° Southeast 501 577 39,000  Level FlightAware ADS-B
Fri 12:41:36 PM 38.5010 -122.8820 140° Southeast 501 577 39,000  Level FlightAware ADS-B
Fri 12:42:10 PM 38.4410 -122.8180 140° Southeast 501 577 39,000  Level FlightAware ADS-B
Fri 12:42:46 PM 38.3760 -122.7480 140° Southeast 501 577 39,000  Level FlightAware ADS-B
Fri 12:43:20 PM 38.3150 -122.6830 140° Southeast 501 577 39,000  Level FlightAware ADS-B
Fri 12:43:58 PM 38.2480 -122.6130 141° Southeast 501 577 39,000  Level FlightAware ADS-B
Fri 12:44:26 PM 38.1990 -122.5610 140° Southeast 502 578 39,000  Level FlightAware ADS-B
Fri 12:45:06 PM 38.1290 -122.4860 140° Southeast 502 578 39,000  Level FlightAware ADS-B
Fri 12:45:38 PM 38.0710 -122.4260 141° Southeast 503 579 39,000  Level FlightAware ADS-B
Fri 12:46:16 PM 38.0030 -122.3540 140° Southeast 502 578 39,000  Level FlightAware ADS-B
Fri 12:46:51 PM 37.9430 -122.2910 140° Southeast 502 578 39,000  Level FlightAware ADS-B
Fri 12:47:28 PM 37.8730 -122.2180 141° Southeast 502 578 39,000  Level FlightAware ADS-B
Fri 12:48:01 PM 37.8180 -122.1600 140° Southeast 503 579 39,000  Level FlightAware ADS-B
Fri 12:48:38 PM 37.7490 -122.0880 140° Southeast 503 579 39,000  Level FlightAware ADS-B
Fri 12:49:10 PM 37.6910 -122.0280 141° Southeast 504 580 39,000  Level FlightAware ADS-B
Fri 12:49:32 PM 37.6500 -121.9850 140° Southeast 504 580 39,000  Level FlightAware ADS-B
Fri 12:50:05 PM 37.5905 -121.9240 141° Southeast 504 580 39,000  Level FlightAware ADS-B
Fri 12:50:35 PM 37.5357 -121.8670 140° Southeast 505 581 39,000  Level FlightAware ADS-B
Fri 12:51:06 PM 37.4798 -121.8090 141° Southeast 505 581 39,000  Level FlightAware ADS-B
Fri 12:52:09 PM 37.3668 -121.6930 141° Southeast 505 581 39,000  Level FlightAware ADS-B
Fri 12:52:42 PM 37.3071 -121.6320 141° Southeast 500 575 39,000  Level FlightAware ADS-B
Fri 12:53:18 PM 37.2450 -121.5680 141° Southeast 481 554 39,000  Level FlightAware ADS-B
Fri 12:53:36 PM 37.2130 -121.5360 141° Southeast 479 551 39,000  Level FlightAware ADS-B
Fri 12:54:30 PM 37.1240 -121.4450 141° Southeast 469 540 39,000  Level FlightAware ADS-B
Fri 12:55:03 PM 37.0670 -121.3870 141° Southeast 470 541 39,000  Level FlightAware ADS-B
Fri 12:55:39 PM 37.0060 -121.3250 141° Southeast 470 541 39,000  Level FlightAware ADS-B
Fri 12:56:11 PM 36.9520 -121.2700 141° Southeast 469 540 39,000  Level FlightAware ADS-B
Fri 12:56:49 PM 36.8880 -121.2050 141° Southeast 470 541 39,000  Level FlightAware ADS-B
Fri 12:57:17 PM 36.8450 -121.1620 141° Southeast 471 542 39,000  Level FlightAware ADS-B
Fri 12:57:54 PM 36.7810 -121.0980 141° Southeast 472 543 39,000  Level FlightAware ADS-B
Fri 12:58:39 PM 36.7030 -121.0190 141° Southeast 470 541 39,000  Level FlightAware ADS-B
Fri 12:59:19 PM 36.6390 -120.9550 141° Southeast 472 543 39,000  Level FlightAware ADS-B
Fri 12:59:55 PM 36.5720 -120.8880 141° Southeast 471 542 39,000 -150 Level FlightAware ADS-B
Fri 01:00:39 PM 36.5050 -120.8220 142° Southeast 467 537 38,800 -553 Descending FlightAware ADS-B
Fri 01:01:11 PM 36.4460 -120.7630 141° Southeast 459 528 38,300 -1,186 Descending FlightAware ADS-B
Fri 01:02:05 PM 36.3560 -120.6730 141° Southeast 462 532 37,100 -804 Descending FlightAware ADS-B
Fri 01:02:48 PM 36.2940 -120.6120 142° Southeast 463 533 37,000 -73 Descending FlightAware ADS-B
Fri 01:03:27 PM 36.2190 -120.5380 141° Southeast 463 533 37,000  Level FlightAware ADS-B
Fri 01:04:01 PM 36.1620 -120.4820 142° Southeast 463 533 37,000  Level FlightAware ADS-B
Fri 01:04:36 PM 36.1020 -120.4220 141° Southeast 464 534 37,000  Level FlightAware ADS-B
Fri 01:05:13 PM 36.0400 -120.3620 142° Southeast 463 533 37,000  Level FlightAware ADS-B
Fri 01:05:46 PM 35.9860 -120.3080 141° Southeast 463 533 37,000  Level FlightAware ADS-B
Fri 01:06:28 PM 35.9140 -120.2380 142° Southeast 464 534 37,000  Level FlightAware ADS-B
Fri 01:07:04 PM 35.8520 -120.1780 142° Southeast 465 535 37,000  Level FlightAware ADS-B
Fri 01:07:37 PM 35.7980 -120.1250 141° Southeast 466 536 37,000  Level FlightAware ADS-B
Fri 01:08:14 PM 35.7370 -120.0650 141° Southeast 466 536 37,000  Level FlightAware ADS-B
Fri 01:08:46 PM 35.6800 -120.0100 142° Southeast 467 537 37,000  Level FlightAware ADS-B
Fri 01:09:24 PM 35.6150 -119.9510 144° Southeast 468 539 37,000  Level FlightAware ADS-B
Fri 01:10:01 PM 35.5500 -119.9010 148° Southeast 468 539 37,000  Level FlightAware ADS-B
Fri 01:10:32 PM 35.4830 -119.8800 166° South 468 539 37,000  Level FlightAware ADS-B
Fri 01:10:54 PM 35.4380 -119.8800 180° South 467 537 37,000 -915 Level FlightAware ADS-B
Fri 01:11:31 PM 35.3550 -119.8850 183° South 469 540 36,100 -740 Descending FlightAware ADS-B
Fri 01:12:07 PM 35.2890 -119.8880 182° South 469 540 36,100 -1,622 Level FlightAware ADS-B
Fri 01:12:45 PM 35.2040 -119.8930 183° South 465 535 34,100 -2,458 Descending FlightAware ADS-B
Fri 01:13:30 PM 35.0950 -119.8770 173° South 461 531 32,700 -1,846 Descending FlightAware ADS-B
Fri 01:13:50 PM 35.0570 -119.8550 155° Southeast 462 532 32,100 -1,946 Descending FlightAware ADS-B
Fri 01:14:07 PM 35.0280 -119.8270 142° Southeast 457 526 31,500 -1,784 Descending FlightAware ADS-B
Fri 01:14:27 PM 35.0030 -119.7910 130° Southeast 448 516 31,000 -1,846 Descending FlightAware ADS-B
Fri 01:14:46 PM 34.9830 -119.7480 120° Southeast 440 506 30,300 -1,839 Descending FlightAware ADS-B
Fri 01:15:29 PM 34.9580 -119.6480 107° East 417 480 29,100 -1,833 Descending FlightAware ADS-B
Fri 01:15:58 PM 34.9440 -119.5850 105° East 411 473 28,100 -2,095 Descending FlightAware ADS-B
Fri 01:16:32 PM 34.9220 -119.5150 111° Southeast 406 467 26,900 -2,280 Descending FlightAware ADS-B
Fri 01:16:48 PM 34.9030 -119.4810 124° Southeast 405 466 26,200 -2,000 Descending FlightAware ADS-B
Fri 01:17:17 PM 34.8700 -119.4440 137° Southeast 397 457 25,400 -1,969 Descending FlightAware ADS-B
Fri 01:17:52 PM 34.8190 -119.3860 137° Southeast 395 455 24,100 -2,000 Descending FlightAware ADS-B
Fri 01:18:32 PM 34.7650 -119.3260 138° Southeast 390 449 22,900 -1,440 Descending FlightAware ADS-B
Fri 01:19:07 PM 34.7210 -119.2780 138° Southeast 370 426 22,300 -1,000 Descending FlightAware ADS-B
Fri 01:19:38 PM 34.6820 -119.2360 138° Southeast 351 404 21,800 -1,475 Descending FlightAware ADS-B
Fri 01:20:08 PM 34.6450 -119.1950 138° Southeast 351 404 20,800 -1,886 Descending FlightAware ADS-B
Fri 01:20:48 PM 34.5970 -119.1430 138° Southeast 334 384 19,600 -1,923 Descending FlightAware ADS-B
Fri 01:21:26 PM 34.5520 -119.0930 138° Southeast 333 383 18,300 -1,701 Descending FlightAware ADS-B
Fri 01:21:55 PM 34.5190 -119.0570 138° Southeast 333 383 17,700 -1,235 Descending FlightAware ADS-B
Fri 01:22:34 PM 34.4770 -119.0110 138° Southeast 327 376 16,900 -1,214 Descending FlightAware ADS-B
Fri 01:23:19 PM 34.4270 -118.9570 138° Southeast 322 371 16,000 -1,200 Descending FlightAware ADS-B
Fri 01:23:54 PM 34.3870 -118.9140 138° Southeast 320 368 15,300 -1,292 Descending FlightAware ADS-B
Fri 01:24:24 PM 34.3500 -118.8810 144° Southeast 321 369 14,600 -1,320 Descending FlightAware ADS-B
Fri 01:24:44 PM 34.3230 -118.8690 160° South 322 371 14,200 -1,222 Descending FlightAware ADS-B
Fri 01:25:18 PM 34.2740 -118.8510 163° South 319 367 13,500 -1,217 Descending FlightAware ADS-B
Fri 01:25:53 PM 34.2240 -118.8320 163° South 314 361 12,800 -1,254 Descending FlightAware ADS-B
Fri 01:26:25 PM 34.1790 -118.8190 167° South 310 357 12,100 -1,091 Descending FlightAware ADS-B
Fri 01:26:48 PM 34.1460 -118.8300 195° South 306 352 11,800 -764 Descending FlightAware ADS-B
Fri 01:27:20 PM 34.1080 -118.8500 204° Southwest 296 341 11,400 -698 Descending FlightAware ADS-B
Fri 01:27:31 PM 34.0950 -118.8530 191° South 288 331 11,300 -727 Descending FlightAware ADS-B
Fri 01:27:53 PM 34.0650 -118.8460 169° South 276 318 11,000 -909 Descending FlightAware ADS-B
Fri 01:28:04 PM 34.0550 -118.8360 140° Southeast 271 312 10,800 -750 Descending FlightAware ADS-B
Fri 01:28:17 PM 34.0450 -118.8210 129° Southeast 265 305 10,700 -750 Descending FlightAware ADS-B
Fri 01:28:28 PM 34.0410 -118.8050 107° East 260 299 10,500 -1,067 Descending FlightAware ADS-B
Fri 01:29:02 PM 34.0360 -118.7560 97° East 263 303 9,900 -643 Descending FlightAware ADS-B
Fri 01:29:24 PM 34.0330 -118.7230 96° East 260 299 9,900  Level FlightAware ADS-B
Fri 01:29:45 PM 34.0310 -118.6930 95° East 260 299 9,900  Level FlightAware ADS-B
Fri 01:30:02 PM 34.0290 -118.6680 96° East 261 300 9,900 -343 Level FlightAware ADS-B
Fri 01:30:20 PM 34.0270 -118.6440 96° East 261 300 9,700 -857 Descending FlightAware ADS-B
Fri 01:30:37 PM 34.0250 -118.6170 95° East 259 298 9,400 -1,059 Descending FlightAware ADS-B
Fri 01:30:54 PM 34.0220 -118.5940 99° East 257 296 9,100 -938 Descending FlightAware ADS-B
Fri 01:31:09 PM 34.0200 -118.5710 96° East 254 292 8,900 -857 Descending FlightAware ADS-B
Fri 01:31:29 PM 34.0180 -118.5430 95° East 251 289 8,600 -878 Descending FlightAware ADS-B
Fri 01:31:50 PM 34.0160 -118.5170 95° East 251 289 8,300 -1,024 Descending FlightAware ADS-B
Fri 01:32:10 PM 34.0130 -118.4870 97° East 250 288 7,900 -1,000 Descending FlightAware ADS-B
Fri 01:32:32 PM 34.0120 -118.4560 92° East 247 284 7,600 -955 Descending FlightAware ADS-B
Fri 01:32:54 PM 34.0140 -118.4270 85° East 243 280 7,200 -955 Descending FlightAware ADS-B
Fri 01:33:16 PM 34.0170 -118.4000 82° East 231 266 6,900 -811 Descending FlightAware ADS-B
Fri 01:33:31 PM 34.0190 -118.3800 83° East 217 250 6,700 -1,297 Descending FlightAware ADS-B
Fri 01:33:53 PM 34.0220 -118.3530 82° East 209 241 6,100 -1,909 Descending FlightAware ADS-B
Fri 01:34:15 PM 34.0250 -118.3280 82° East 210 242 5,300 -1,909 Descending FlightAware ADS-B
Fri 01:34:37 PM 34.0280 -118.3030 82° East 203 234 4,700 -1,364 Descending FlightAware ADS-B
Fri 01:34:59 PM 34.0310 -118.2780 82° East 200 230 4,300 -947 Descending FlightAware ADS-B
Fri 01:35:15 PM 34.0330 -118.2620 81° East 199 229 4,100 -1,029 Descending FlightAware ADS-B
Fri 01:35:34 PM 34.0360 -118.2400 81° East 198 228 3,700 -947 Descending FlightAware ADS-B
Fri 01:35:53 PM 34.0380 -118.2180 84° East 200 230 3,500 -571 Descending FlightAware ADS-B
Fri 01:36:16 PM 34.0410 -118.1940 81° East 201 231 3,300 -558 Descending FlightAware ADS-B
Fri 01:36:36 PM 34.0430 -118.1710 84° East 202 232 3,100 -480 Descending FlightAware ADS-B
Fri 01:37:06 PM 34.0400 -118.1440 98° East 202 232 2,900 -293 Descending FlightAware ADS-B
Fri 01:37:17 PM 34.0310 -118.1350 140° Southeast 202 232 2,900  Level FlightAware ADS-B
Fri 01:37:26 PM 34.0210 -118.1330 171° South 193 222 2,900  Level FlightAware ADS-B
Fri 01:37:52 PM 33.9970 -118.1370 188° South 201 231 2,900  Level FlightAware ADS-B
Fri 01:38:02 PM 33.9900 -118.1400 200° South 197 227 2,900  Level FlightAware ADS-B
Fri 01:38:07 PM 33.9850 -118.1460 225° Southwest 193 222 2,900  Level FlightAware ADS-B
Fri 01:38:27 PM 33.9740 -118.1610 229° Southwest 192 221 2,900  Level FlightAware ADS-B
Fri 01:38:47 PM 33.9630 -118.1790 234° Southwest 192 221 2,900  Level FlightAware ADS-B
Fri 01:38:58 PM 33.9590 -118.1890 244° Southwest 191 220 2,900  Level FlightAware ADS-B
Fri 01:39:06 PM 33.9560 -118.1990 250° West 190 219 2,900 -480 Level FlightAware ADS-B
Fri 01:39:23 PM 33.9540 -118.2150 261° West 193 222 2,700 -789 Descending FlightAware ADS-B
Fri 01:39:44 PM 33.9520 -118.2380 264° West 193 222 2,400 -947 Descending FlightAware ADS-B
Fri 01:40:20 PM 33.9480 -118.2750 263° West 177 204 1,800 -1,091 Descending FlightAware ADS-B
Fri 01:40:39 PM 33.9460 -118.2950 263° West 164 189 1,400 -900 Descending FlightAware ADS-B
Fri 01:41:00 PM 33.9450 -118.3120 266° West 151 174 1,200 -720 Descending FlightAware ADS-B
Fri 01:41:29 PM 33.9420 -118.3350 261° West 149 171 800 -808 Descending FlightAware ADS-B
Fri 01:41:52 PM 33.9400 -118.3550 263° West 148 170 500 -476 Descending FlightAware ADS-B
Fri 01:42:32 PM 33.9370 -118.3840 263° West 147 169 300 -286 Descending FlightAware ADS-B
Fri 01:43:16 PM 33.9344 -118.4167 263° West 155 178 100 -273 Descending Los Angeles Center

Login

Don't have an account? Register now (free) for customized features, flight alerts, and more!